Time;durP1;ratioP1;P1;durP2;ratioP2;P2;SDS_P1;SDS_P2;PMS_P1;PMS_P2;Temp;Humidity;BMP_temperature;BMP_pressure;BME280_temperature;BME280_humidity;BME280_pressure;Samples;Min_cycle;Max_cycle;Signal;HPM_P1;HPM_P2
2023/02/15 00:01:12;;;;;;;26.77;17.13;;;;;;;10.39;44.85;99930.38;5091922;28;20024;-47
2023/02/15 00:04:02;;;;;;;22.88;17.00;;;;;;;10.06;45.48;99929.59;5091939;28;20106;-47
2023/02/15 00:06:37;;;;;;;23.80;17.05;;;;;;;9.66;47.24;99928.63;5091810;28;20028;-48
2023/02/15 00:09:04;;;;;;;;;;;;;;;9.63;47.78;99926.31;5092293;28;20028;-47
2023/02/15 00:11:42;;;;;;;;;;;;;;;9.77;47.90;99919.59;5092147;28;19912;-48
2023/02/15 00:14:29;;;;;;;24.20;16.30;;;;;;;9.84;48.93;99911.91;5093009;28;19951;-47
2023/02/15 00:16:59;;;;;;;22.55;17.05;;;;;;;10.00;47.88;99909.28;5092769;28;20115;-47
2023/02/15 00:19:43;;;;;;;25.50;16.95;;;;;;;9.69;48.02;99906.50;5092635;28;20122;-48
2023/02/15 00:22:10;;;;;;;35.65;18.20;;;;;;;9.47;48.96;99908.78;5091530;28;20046;-47
2023/02/15 00:24:36;;;;;;;25.23;16.45;;;;;;;9.34;48.49;99917.13;5092858;28;20028;-47
2023/02/15 00:27:08;;;;;;;24.10;17.80;;;;;;;9.14;48.86;99921.03;5092789;28;20111;-48
2023/02/15 00:29:47;;;;;;;22.45;15.48;;;;;;;8.92;48.88;99915.41;5091495;28;20024;-48
2023/02/15 00:32:14;;;;;;;26.40;16.17;;;;;;;8.82;49.27;99919.97;5091992;28;20094;-47
2023/02/15 00:34:46;;;;;;;24.15;17.65;;;;;;;8.76;49.60;99923.22;5091348;28;20050;-47
2023/02/15 00:37:21;;;;;;;27.08;17.17;;;;;;;8.62;50.89;99919.38;5091240;28;20035;-46
2023/02/15 00:39:50;;;;;;;23.85;17.92;;;;;;;8.55;50.15;99924.44;5092447;28;20038;-48
2023/02/15 00:42:23;;;;;;;26.05;17.85;;;;;;;8.46;50.59;99907.03;5091769;28;20028;-46
2023/02/15 00:44:50;;;;;;;22.35;16.50;;;;;;;8.27;50.24;99912.47;5092481;28;20123;-47
2023/02/15 00:47:16;;;;;;;23.65;16.45;;;;;;;8.22;50.75;99915.56;5091140;28;20504;-47
2023/02/15 00:49:52;;;;;;;23.17;17.67;;;;;;;8.29;52.14;99918.34;5091172;28;20063;-48
2023/02/15 00:52:29;;;;;;;32.08;19.02;;;;;;;8.26;53.37;99916.06;5092331;28;20106;-47
2023/02/15 00:55:01;;;;;;;26.48;16.48;;;;;;;8.53;51.95;99915.91;5092239;28;20024;-47
2023/02/15 00:57:30;;;;;;;29.95;18.85;;;;;;;8.70;52.25;99916.81;5092332;28;20012;-48
2023/02/15 01:00:00;;;;;;;32.72;18.20;;;;;;;9.15;52.94;99913.00;5092255;28;20024;-48
2023/02/15 01:02:31;;;;;;;22.98;18.75;;;;;;;9.35;50.46;99918.75;5092170;28;20020;-47
2023/02/15 01:05:02;;;;;;;24.30;18.35;;;;;;;9.04;50.63;99920.34;5092121;28;20028;-47
2023/02/15 01:07:40;;;;;;;32.13;18.55;;;;;;;8.79;50.59;99918.47;5090801;28;20020;-48
2023/02/15 01:10:19;;;;;;;26.80;18.20;;;;;;;8.54;50.32;99917.53;5092106;28;20469;-48
2023/02/15 01:13:00;;;;;;;23.25;16.67;;;;;;;8.34;51.64;99921.34;5092298;28;20028;-48
2023/02/15 01:15:45;;;;;;;26.77;20.35;;;;;;;8.28;51.13;99929.81;5073710;28;20081;-48
2023/02/15 01:18:26;;;;;;;38.58;30.30;;;;;;;8.09;51.72;99936.03;5091994;28;20050;-48
2023/02/15 01:21:34;;;;;;;48.75;40.35;;;;;;;8.02;52.88;99924.56;5090568;28;20032;-47
2023/02/15 01:24:31;;;;;;;27.25;19.08;;;;;;;8.04;53.09;99926.06;5091884;28;20081;-47
2023/02/15 01:27:18;;;;;;;31.95;19.15;;;;;;;8.08;53.46;99919.53;5091896;28;20035;-47
2023/02/15 01:29:50;;;;;;;24.95;19.10;;;;;;;8.05;54.26;99922.47;5092147;28;20032;-47
2023/02/15 01:32:31;;;;;;;28.02;18.63;;;;;;;7.95;53.91;99929.59;5091801;28;20103;-47
2023/02/15 01:35:00;;;;;;;30.65;18.02;;;;;;;7.91;54.23;99930.88;5091729;28;20031;-47
2023/02/15 01:37:39;;;;;;;29.83;17.83;;;;;;;7.99;53.44;99930.94;5091822;28;20024;-48
2023/02/15 01:40:20;;;;;;;23.35;18.27;;;;;;;7.95;53.75;99932.22;5090422;28;20497;-48
2023/02/15 01:43:03;;;;;;;29.65;19.67;;;;;;;7.76;53.91;99920.94;5089521;28;20048;-47
2023/02/15 01:45:39;;;;;;;26.75;19.30;;;;;;;7.69;54.71;99933.00;5094598;28;20505;-48
2023/02/15 01:48:10;;;;;;;29.30;19.60;;;;;;;7.67;54.90;99936.75;5095868;28;20028;-47
2023/02/15 01:51:03;;;;;;;24.20;18.67;;;;;;;7.66;54.52;99930.66;5094528;28;20039;-48
2023/02/15 01:53:55;;;;;;;34.85;20.80;;;;;;;7.65;54.65;99925.63;5094411;28;20032;-47
2023/02/15 01:56:40;;;;;;;25.80;18.85;;;;;;;7.60;55.17;99928.66;5095673;28;20078;-48
2023/02/15 01:59:33;;;;;;;25.52;18.45;;;;;;;7.60;55.26;99934.69;5095761;28;20114;-47
2023/02/15 02:02:20;;;;;;;30.98;18.40;;;;;;;7.56;54.74;99935.16;5095618;28;20047;-47
2023/02/15 02:04:52;;;;;;;27.13;20.17;;;;;;;7.67;55.82;99932.31;5095591;28;20032;-47
2023/02/15 02:07:44;;;;;;;28.08;18.63;;;;;;;7.69;55.89;99933.00;5095502;28;20107;-47
2023/02/15 02:10:30;;;;;;;31.85;20.10;;;;;;;7.83;56.04;99921.19;5094148;28;20043;-47
2023/02/15 02:13:14;;;;;;;31.65;20.23;;;;;;;8.08;56.20;99916.13;5095373;28;20497;-47
2023/02/15 02:16:19;;;;;;;31.48;20.20;;;;;;;8.29;55.68;99926.19;5095213;28;20027;-46
2023/02/15 02:19:23;;;;;;;30.67;19.70;;;;;;;8.34;55.49;99927.38;5093972;28;20576;-48
2023/02/15 02:22:51;;;;;;;32.78;18.63;;;;;;;8.33;54.26;99917.91;5095239;28;20024;-48
2023/02/15 02:25:55;;;;;;;32.33;20.40;;;;;;;8.15;55.19;99922.38;5095246;28;20157;-47
2023/02/15 02:29:00;;;;;;;27.52;19.45;;;;;;;8.12;54.83;99930.53;5095153;28;20028;-48
2023/02/15 02:32:11;;;;;;;31.05;20.48;;;;;;;8.07;54.88;99914.47;5095049;28;20097;-48
2023/02/15 02:35:23;;;;;;;29.40;18.83;;;;;;;7.83;54.54;99920.34;5094995;28;20393;-47
2023/02/15 02:38:30;;;;;;;34.30;19.52;;;;;;;7.43;55.79;99922.47;5093652;28;20032;-47
2023/02/15 02:41:45;;;;;;;30.27;18.13;;;;;;;7.34;56.60;99924.19;5094567;28;20054;-47
2023/02/15 02:44:54;;;;;;;32.60;20.95;;;;;;;7.53;58.02;99925.84;5094182;28;20101;-47
2023/02/15 02:48:00;;;;;;;36.15;19.98;;;;;;;7.69;57.29;99916.50;5094687;28;20500;-47
2023/02/15 02:50:41;;;;;;;35.17;21.88;;;;;;;7.80;57.64;99917.06;5093380;28;20023;-48
2023/02/15 02:53:24;;;;;;;38.65;22.92;;;;;;;7.94;57.92;99922.72;5093265;28;20028;-47
2023/02/15 02:56:35;;;;;;;42.08;22.60;;;;;;;8.20;57.23;99915.69;5092620;28;20024;-47
2023/02/15 02:59:42;;;;;;;32.85;20.85;;;;;;;8.29;56.67;99926.19;5093702;28;20038;-47
2023/02/15 03:02:51;;;;;;;28.65;20.65;;;;;;;8.54;56.32;99924.59;5093152;28;20028;-48
2023/02/15 03:05:44;;;;;;;32.97;21.88;;;;;;;8.49;56.15;99925.06;5094283;28;20111;-47
2023/02/15 03:08:21;;;;;;;32.70;20.17;;;;;;;8.31;56.43;99934.72;5109825;28;20126;-47
2023/02/15 03:10:59;;;;;;;27.58;19.70;;;;;;;8.21;57.02;99921.78;5092945;28;20032;-47
2023/02/15 03:13:39;;;;;;;30.80;19.77;;;;;;;8.25;56.44;99915.25;5092986;28;20028;-48
2023/02/15 03:19:39;;;;;;;27.63;20.30;;;;;;;7.71;56.44;99914.56;5094380;28;20043;-47
2023/02/15 03:22:36;;;;;;;29.67;21.35;;;;;;;7.51;57.25;99924.34;5092755;28;20401;-46
2023/02/15 03:25:20;;;;;;;;;;;;;;;7.35;57.31;99922.41;5094484;28;20060;-48
2023/02/15 03:28:27;;;;;;;29.58;21.85;;;;;;;7.31;57.25;99915.84;5092640;28;19915;-48
2023/02/15 03:31:14;;;;;;;32.17;21.90;;;;;;;7.12;57.50;99916.78;5080771;28;20067;-47
2023/02/15 03:34:04;;;;;;;29.45;23.20;;;;;;;7.11;57.90;99908.13;5092457;28;20050;-47
2023/02/15 03:37:11;;;;;;;29.73;21.58;;;;;;;7.01;59.26;99907.38;5092447;28;20122;-48
2023/02/15 03:43:49;;;;;;;28.30;21.42;;;;;;;7.18;60.50;99895.31;5091975;28;20077;-48
2023/02/15 03:46:56;;;;;;;31.42;21.40;;;;;;;7.46;60.24;99901.28;5092259;28;20206;-48
2023/02/15 03:49:29;;;;;;;;;;;;;;;7.53;59.64;99904.94;5094078;28;20024;-47
2023/02/15 03:52:27;;;;;;;32.13;21.20;;;;;;;7.54;60.70;99909.16;5091621;28;19912;-47
2023/02/15 03:55:01;;;;;;;31.25;21.60;;;;;;;7.83;60.74;99900.28;5092141;28;20470;-47
2023/02/15 04:03:55;;;;;;;31.88;22.60;;;;;;;8.12;61.20;99897.34;5093626;28;20122;-47
2023/02/15 04:06:21;;;;;;;35.28;22.85;;;;;;;8.31;60.68;99898.94;5092156;28;20027;-47
2023/02/15 04:12:18;;;;;;;32.50;25.70;;;;;;;8.67;58.37;99890.97;5093432;28;20030;-47
2023/02/15 04:17:42;;;;;;;32.80;21.55;;;;;;;8.50;58.13;99889.25;5093287;28;20542;-48
2023/02/15 04:26:07;;;;;;;29.23;22.33;;;;;;;7.49;59.83;99902.78;5092875;28;20031;-47
2023/02/15 04:28:48;;;;;;;29.75;22.45;;;;;;;7.22;60.07;99908.88;5091496;28;20193;-48
2023/02/15 04:31:14;;;;;;;35.70;24.80;;;;;;;7.09;61.26;99911.88;5092772;28;20024;-47
2023/02/15 04:33:43;;;;;;;30.85;22.40;;;;;;;7.02;61.59;99908.19;5092643;28;20051;-46
2023/02/15 04:36:48;;;;;;;;;;;;;;;6.99;61.43;99917.97;5091314;28;20039;-47
2023/02/15 04:39:40;;;;;;;36.65;24.45;;;;;;;6.87;61.74;99911.31;5091330;28;20285;-47
2023/02/15 04:42:20;;;;;;;31.30;20.35;;;;;;;6.75;61.32;99910.66;5092515;28;20031;-48
2023/02/15 04:44:59;;;;;;;34.30;22.88;;;;;;;6.79;62.58;99919.03;5090942;28;20120;-48
2023/02/15 04:47:41;;;;;;;30.75;19.92;;;;;;;6.79;59.89;99916.44;5092447;28;20048;-48
2023/02/15 04:50:17;;;;;;;29.70;17.95;;;;;;;6.86;60.29;99914.03;5091051;28;20497;-48
2023/02/15 04:52:55;;;;;;;28.23;18.50;;;;;;;6.92;59.89;99905.63;5092407;28;20031;-48
2023/02/15 04:55:23;;;;;;;35.35;23.70;;;;;;;6.96;60.68;99909.59;5092234;28;20417;-47
2023/02/15 04:57:49;;;;;;;28.73;19.60;;;;;;;6.99;59.66;99899.69;5092320;28;20024;-47
2023/02/15 05:00:24;;;;;;;28.52;20.63;;;;;;;6.85;59.55;99904.59;5090908;28;20060;-48
2023/02/15 05:03:02;;;;;;;25.65;19.63;;;;;;;6.68;60.06;99909.63;5092189;28;20078;-47
2023/02/15 05:05:42;;;;;;;31.50;23.35;;;;;;;6.70;62.07;99905.09;5090814;28;20028;-48
2023/02/15 05:08:22;;;;;;;29.15;22.17;;;;;;;6.76;60.26;99906.25;5090759;28;20123;-48
2023/02/15 05:10:55;;;;;;;35.85;21.63;;;;;;;6.72;60.43;99905.75;5091062;28;20024;-47
2023/02/15 05:13:23;;;;;;;40.55;21.58;;;;;;;6.71;60.19;99896.28;5090760;28;20031;-47
2023/02/15 05:15:51;;;;;;;31.10;21.25;;;;;;;6.73;60.64;99901.34;5092005;28;20024;-47
2023/02/15 05:18:20;;;;;;;32.60;22.42;;;;;;;6.72;59.66;99904.91;5090350;28;20035;-47
2023/02/15 05:20:48;;;;;;;40.92;23.10;;;;;;;6.63;59.64;99905.81;5090640;28;20028;-46
2023/02/15 05:23:15;;;;;;;41.03;22.73;;;;;;;6.56;59.71;99903.78;5090586;28;20030;-47
2023/02/15 05:28:41;;;;;;;34.45;21.73;;;;;;;6.57;60.48;99915.03;5071704;28;20043;-47
2023/02/15 05:31:21;;;;;;;43.15;26.45;;;;;;;6.64;60.34;99915.25;5092171;28;20039;-46
2023/02/15 05:33:48;;;;;;;48.45;23.10;;;;;;;6.72;59.86;99913.59;5092085;28;20448;-47
2023/02/15 05:36:16;;;;;;;40.53;22.80;;;;;;;6.65;58.46;99911.69;5090555;28;20028;-46
2023/02/15 05:38:43;;;;;;;31.30;21.20;;;;;;;6.42;58.69;99906.84;5091799;28;20393;-46
2023/02/15 05:41:11;;;;;;;33.28;22.00;;;;;;;6.26;59.94;99904.00;5091698;28;20035;-47
2023/02/15 05:43:42;;;;;;;32.00;25.02;;;;;;;6.23;61.46;99905.13;5089988;28;20078;-46
2023/02/15 05:46:09;;;;;;;32.13;24.08;;;;;;;6.20;61.87;99913.25;5091697;28;20034;-46
2023/02/15 05:48:35;;;;;;;32.53;26.13;;;;;;;6.21;62.64;99907.03;5090430;28;20020;-46
2023/02/15 05:51:15;;;;;;;41.17;26.80;;;;;;;6.06;63.97;99905.88;5091729;28;20438;-46
2023/02/15 05:53:42;;;;;;;42.55;25.70;;;;;;;6.38;65.78;99910.72;5091581;28;20456;-47
2023/02/15 05:56:11;;;;;;;32.42;25.75;;;;;;;6.87;64.54;99908.69;5091700;28;20023;-46
2023/02/15 05:58:40;;;;;;;30.83;25.10;;;;;;;6.95;63.54;99900.94;5091570;28;20531;-46
2023/02/15 06:01:13;;;;;;;40.65;26.38;;;;;;;7.18;63.89;99908.34;5090286;28;20038;-47
2023/02/15 06:03:40;;;;;;;32.28;22.13;;;;;;;7.24;61.25;99907.75;5090270;28;20505;-47
2023/02/15 06:06:08;;;;;;;35.03;22.27;;;;;;;7.15;60.52;99906.06;5091581;28;20094;-47
2023/02/15 06:08:37;;;;;;;30.80;23.58;;;;;;;7.20;59.95;99906.41;5090263;28;20028;-47
2023/02/15 06:11:04;;;;;;;40.38;21.58;;;;;;;7.17;59.78;99904.13;5091573;28;20052;-47
2023/02/15 06:13:32;;;;;;;31.38;23.58;;;;;;;7.09;60.73;99909.25;5091474;28;20167;-47
2023/02/15 06:15:59;;;;;;;34.22;26.33;;;;;;;7.16;61.56;99913.75;5090041;28;20032;-47
2023/02/15 06:18:26;;;;;;;40.95;29.13;;;;;;;6.98;61.88;99916.31;5091754;28;20039;-47
2023/02/15 06:20:53;;;;;;;37.13;30.13;;;;;;;6.94;63.30;99911.53;5090129;28;20028;-46
2023/02/15 06:23:20;;;;;;;38.05;27.00;;;;;;;6.79;63.00;99912.03;5091750;28;20070;-47
2023/02/15 06:25:47;;;;;;;32.70;24.92;;;;;;;6.86;62.26;99919.28;5091316;28;20513;-47
2023/02/15 06:28:13;;;;;;;35.58;26.48;;;;;;;6.84;61.48;99919.44;5090002;28;20039;-47
2023/02/15 06:30:41;;;;;;;36.15;25.30;;;;;;;6.79;61.76;99921.66;5094260;28;20039;-47
2023/02/15 06:33:08;;;;;;;40.15;26.08;;;;;;;6.63;62.24;99931.88;5093830;28;20032;-47
2023/02/15 06:35:34;;;;;;;39.17;25.17;;;;;;;6.49;61.71;99923.56;5093623;28;20107;-47
2023/02/15 06:38:01;;;;;;;32.63;23.27;;;;;;;6.49;62.89;99925.34;5093684;28;20020;-47
2023/02/15 06:40:29;;;;;;;39.85;25.55;;;;;;;6.66;63.33;99928.97;5093599;28;20053;-47
2023/02/15 06:42:55;;;;;;;35.00;24.25;;;;;;;6.88;63.29;99931.22;5093340;28;20077;-48
2023/02/15 06:45:22;;;;;;;34.40;25.75;;;;;;;7.14;63.98;99922.66;5094823;28;20421;-47
2023/02/15 06:47:49;;;;;;;42.42;27.60;;;;;;;7.35;64.61;99927.63;5094833;28;20078;-47
2023/02/15 06:50:16;;;;;;;37.60;25.92;;;;;;;7.64;64.14;99926.56;5093443;28;20027;-47
2023/02/15 06:52:43;;;;;;;34.42;26.80;;;;;;;7.87;61.14;99919.91;5094781;28;20012;-47
2023/02/15 06:55:11;;;;;;;39.83;24.73;;;;;;;7.56;59.75;99927.31;5094551;28;20130;-47
2023/02/15 06:57:38;;;;;;;31.10;22.15;;;;;;;7.49;61.12;99934.94;5093309;28;20103;-47
2023/02/15 07:00:06;;;;;;;35.92;24.58;;;;;;;7.72;60.04;99937.91;5093342;28;20073;-47
2023/02/15 07:02:33;;;;;;;36.03;25.83;;;;;;;7.83;59.24;99930.78;5093223;28;20390;-47
2023/02/15 07:05:00;;;;;;;34.78;24.02;;;;;;;8.09;59.52;99930.81;5094482;28;20143;-47
2023/02/15 07:07:27;;;;;;;34.97;25.23;;;;;;;8.52;58.70;99937.81;5094328;28;20047;-47
2023/02/15 07:09:54;;;;;;;37.00;22.73;;;;;;;9.18;57.15;99933.63;5094406;28;20020;-47
2023/02/15 07:15:07;;;;;;;33.80;22.48;;;;;;;10.11;54.90;99932.53;5094225;28;20558;-47
2023/02/15 07:17:35;;;;;;;33.67;25.63;;;;;;;10.33;53.23;99940.72;5094181;28;20035;-47
2023/02/15 07:20:14;;;;;;;37.80;25.58;;;;;;;10.43;52.00;99936.09;5092842;28;20028;-47
2023/02/15 07:22:43;;;;;;;30.58;25.30;;;;;;;10.22;52.08;99927.91;5094204;28;20028;-47
2023/02/15 07:25:11;;;;;;;37.50;24.50;;;;;;;10.36;52.03;99927.25;5094060;28;20051;-47
2023/02/15 07:27:38;;;;;;;40.08;23.27;;;;;;;10.44;50.82;99931.66;5092703;28;20060;-47
2023/02/15 07:30:13;;;;;;;36.95;22.52;;;;;;;11.07;49.07;99937.81;5092604;28;20032;-48
2023/02/15 07:33:22;;;;;;;33.70;25.02;;;;;;;11.35;47.68;99932.91;5092657;28;20024;-47
2023/02/15 07:35:38;;;;;;;34.40;25.52;;;;;;;11.24;48.38;99936.72;5093487;28;20047;-48
2023/02/15 07:38:04;;;;;;;40.05;27.45;;;;;;;11.52;48.53;99928.34;5093789;28;20039;-47
2023/02/15 07:40:32;;;;;;;39.75;25.35;;;;;;;11.50;48.64;99930.31;5091930;28;20031;-47
2023/02/15 07:42:58;;;;;;;31.70;20.77;;;;;;;11.81;47.42;99930.22;5091888;28;20131;-47
2023/02/15 07:45:40;;;;;;;35.55;22.65;;;;;;;12.46;45.91;99920.91;5093567;28;20101;-48
2023/02/15 07:48:22;;;;;;;34.95;24.23;;;;;;;13.02;45.17;99914.28;5092337;28;20575;-48
2023/02/15 07:50:48;;;;;;;32.60;24.30;;;;;;;12.59;44.73;99922.91;5093511;28;20020;-47
2023/02/15 07:53:16;;;;;;;41.20;25.40;;;;;;;11.27;46.87;99925.03;5072893;28;20044;-47
2023/02/15 07:55:43;;;;;;;35.28;25.35;;;;;;;10.20;49.98;99922.81;5093395;28;20035;-47
2023/02/15 07:58:11;;;;;;;32.22;25.70;;;;;;;9.50;51.53;99924.19;5093362;28;20028;-47
2023/02/15 08:03:34;;;;;;;45.03;24.52;;;;;;;9.25;53.90;99914.66;5093252;28;20089;-47
2023/02/15 08:06:01;;;;;;;65.00;25.63;;;;;;;9.49;53.57;99927.78;5093536;28;20028;-47
2023/02/15 08:08:35;;;;;;;53.53;26.15;;;;;;;10.12;52.82;99921.06;5093225;28;20027;-47
2023/02/15 08:11:32;;;;;;;52.38;23.13;;;;;;;10.92;50.87;99928.03;5091883;28;20032;-47
2023/02/15 08:14:04;;;;;;;44.92;25.38;;;;;;;11.79;48.93;99932.22;5091767;28;20030;-48
2023/02/15 08:16:42;;;;;;;65.78;27.55;;;;;;;12.32;47.69;99919.91;5093060;28;20020;-47
2023/02/15 08:19:11;;;;;;;56.17;26.80;;;;;;;12.30;46.60;99919.28;5092997;28;20043;-47
2023/02/15 08:21:41;;;;;;;76.47;25.98;;;;;;;12.16;47.34;99920.09;5092947;28;20115;-47
2023/02/15 08:24:11;;;;;;;91.25;26.80;;;;;;;12.28;47.07;99920.47;5091608;28;20039;-47
2023/02/15 08:26:40;;;;;;;88.97;26.40;;;;;;;12.67;46.33;99919.34;5092903;28;20043;-47
2023/02/15 08:29:09;;;;;;;59.90;25.52;;;;;;;13.37;45.89;99908.22;5091579;28;20020;-48
2023/02/15 08:31:37;;;;;;;67.03;24.75;;;;;;;14.56;43.54;99904.00;5092810;28;20464;-47
2023/02/15 08:34:05;;;;;;;52.13;25.77;;;;;;;15.62;42.06;99905.31;5092744;28;20396;-47
2023/02/15 08:36:32;;;;;;;39.15;26.27;;;;;;;16.30;39.59;99905.09;5091659;28;20034;-48
2023/02/15 08:39:01;;;;;;;38.03;25.70;;;;;;;15.96;38.52;99899.03;5092607;28;20114;-45
2023/02/15 08:41:47;;;;;;;35.50;25.42;;;;;;;15.41;39.67;99908.94;5090943;28;20036;-45
2023/02/15 08:44:25;;;;;;;35.22;25.15;;;;;;;15.12;39.96;99903.00;5091037;28;20048;-46
2023/02/15 08:46:52;;;;;;;35.22;25.63;;;;;;;15.16;40.14;99901.59;5092543;28;20069;-45
2023/02/15 08:49:21;;;;;;;35.90;25.50;;;;;;;15.72;39.88;99903.91;5091174;28;20034;-45
2023/02/15 08:51:49;;;;;;;29.75;23.92;;;;;;;16.49;39.02;99895.44;5091741;28;20027;-45
2023/02/15 08:54:19;;;;;;;39.05;25.70;;;;;;;16.72;38.58;99900.22;5092358;28;20024;-45
2023/02/15 08:56:47;;;;;;;30.63;24.58;;;;;;;17.19;37.49;99892.09;5092271;28;20558;-45
2023/02/15 08:59:18;;;;;;;36.00;23.88;;;;;;;17.58;38.19;99889.13;5092343;28;20039;-45
2023/02/15 09:01:48;;;;;;;33.88;22.23;;;;;;;18.49;36.33;99881.53;5092537;28;20435;-45
2023/02/15 09:04:16;;;;;;;27.65;21.58;;;;;;;19.58;34.15;99875.34;5090931;28;20032;-46
2023/02/15 09:06:46;;;;;;;30.80;21.52;;;;;;;20.54;32.87;99867.88;5090857;28;20027;-46
2023/02/15 09:09:18;;;;;;;39.22;23.02;;;;;;;21.25;31.29;99872.09;5092141;28;20036;-46
2023/02/15 09:11:48;;;;;;;24.50;20.83;;;;;;;21.08;30.77;99874.75;5090859;28;20111;-46
2023/02/15 09:14:27;;;;;;;27.48;20.33;;;;;;;20.87;31.23;99881.59;5092074;28;20099;-46
2023/02/15 09:16:57;;;;;;;29.92;20.73;;;;;;;21.10;30.79;99880.66;5092406;28;20420;-45
2023/02/15 09:19:39;;;;;;;36.67;23.08;;;;;;;22.41;30.28;99874.09;5092050;28;20031;-46
2023/02/15 09:22:06;;;;;;;44.13;21.67;;;;;;;23.82;27.98;99876.78;5091992;28;20046;-46
2023/02/15 09:24:34;;;;;;;48.95;27.30;;;;;;;24.69;26.70;99868.38;5090649;28;20024;-46
2023/02/15 09:27:01;;;;;;;32.40;21.55;;;;;;;24.31;26.73;99865.00;5091872;28;20065;-46
2023/02/15 09:29:28;;;;;;;24.30;19.05;;;;;;;23.65;26.36;99860.84;5091926;28;20028;-46
2023/02/15 09:31:55;;;;;;;22.13;18.33;;;;;;;23.22;26.49;99865.34;5090546;28;20107;-46
2023/02/15 09:34:23;;;;;;;34.00;19.45;;;;;;;22.41;27.53;99862.59;5091805;28;20043;-46
2023/02/15 09:36:51;;;;;;;29.23;18.60;;;;;;;21.43;28.49;99863.06;5092131;28;20119;-46
2023/02/15 09:39:20;;;;;;;25.63;16.95;;;;;;;21.03;29.31;99858.66;5091805;28;20107;-46
2023/02/15 09:41:56;;;;;;;42.05;19.50;;;;;;;20.92;29.88;99857.66;5090459;28;20051;-46
2023/02/15 09:44:41;;;;;;;28.00;18.33;;;;;;;20.61;30.82;99864.28;5091410;28;20066;-46
2023/02/15 09:47:39;;;;;;;22.67;15.63;;;;;;;21.22;29.96;99856.56;5091811;28;20035;-46
2023/02/15 09:50:59;;;;;;;27.45;17.55;;;;;;;21.32;30.80;99857.53;5091758;28;20024;-46
2023/02/15 09:54:15;;;;;;;29.83;18.02;;;;;;;21.69;29.03;99857.09;5091669;28;20065;-47
2023/02/15 09:57:07;;;;;;;24.65;16.38;;;;;;;21.79;28.54;99852.94;5091727;28;20440;-46
2023/02/15 09:59:43;;;;;;;35.70;17.10;;;;;;;22.62;27.50;99847.59;5091696;28;20115;-46
2023/02/15 10:03:11;;;;;;;28.80;18.88;;;;;;;23.72;26.11;99842.69;5091571;28;20564;-47
2023/02/15 10:06:25;;;;;;;19.15;14.05;;;;;;;24.76;23.71;99841.28;5094328;28;20032;-46
2023/02/15 10:09:11;;;;;;;22.70;14.95;;;;;;;24.95;23.00;99845.06;5095839;28;20025;-46
2023/02/15 10:12:28;;;;;;;17.55;13.27;;;;;;;25.11;23.16;99835.13;5095850;28;20447;-47
2023/02/15 10:15:15;;;;;;;33.30;22.23;;;;;;;25.15;22.80;99838.88;5095378;28;20035;-46
2023/02/15 10:18:06;;;;;;;30.80;21.05;;;;;;;24.79;23.30;99849.59;5094065;28;20081;-46
2023/02/15 10:21:02;;;;;;;31.27;13.43;;;;;;;24.09;23.63;99841.81;5095354;28;20035;-46
2023/02/15 10:23:46;;;;;;;;;;;;;;;24.62;22.78;99841.78;5095585;28;20028;-46
2023/02/15 10:26:22;;;;;;;24.50;16.85;;;;;;;24.85;23.35;99837.81;5093907;28;20354;-47
2023/02/15 10:29:06;;;;;;;28.25;16.50;;;;;;;24.35;23.78;99831.22;5095120;28;20028;-46
2023/02/15 10:32:01;;;;;;;25.42;14.18;;;;;;;23.99;24.56;99843.66;5095156;28;20057;-46
2023/02/15 10:34:50;;;;;;;23.40;14.67;;;;;;;24.30;23.74;99839.22;5093759;28;20024;-46
2023/02/15 10:37:58;;;;;;;24.05;20.20;;;;;;;24.30;24.07;99845.38;5095144;28;20092;-46
2023/02/15 10:41:08;;;;;;;20.65;14.40;;;;;;;25.10;23.65;99828.16;5094551;28;20027;-46
2023/02/15 10:44:11;;;;;;;19.05;12.00;;;;;;;24.96;23.02;99838.59;5090280;28;20123;-47
2023/02/15 10:47:27;;;;;;;20.42;12.25;;;;;;;24.10;24.29;99838.06;5094777;28;20126;-46
2023/02/15 10:50:33;;;;;;;14.77;10.73;;;;;;;23.72;24.55;99836.50;5032380;28;20507;-46
2023/02/15 10:53:44;;;;;;;14.02;10.80;;;;;;;24.49;23.68;99831.53;5030237;28;20145;-47
2023/02/15 10:56:51;;;;;;;15.18;10.85;;;;;;;25.24;22.58;99831.94;5032316;28;20036;-46
2023/02/15 11:00:07;;;;;;;13.90;10.25;;;;;;;25.05;22.02;99823.59;5015561;28;20033;-46
2023/02/15 11:02:48;;;;;;;;;;;;;;;24.78;22.43;99825.69;5032532;28;20403;-47
2023/02/15 11:06:12;;;;;;;8.07;6.18;;;;;;;24.60;21.09;99814.38;5015556;28;20533;-46
2023/02/15 11:09:23;;;;;;;17.52;7.07;;;;;;;24.67;21.92;99814.13;4992812;28;20030;-46
2023/02/15 11:12:19;;;;;;;12.00;6.32;;;;;;;25.52;20.34;99819.00;4992445;28;20101;-46
2023/02/15 11:15:20;;;;;;;14.77;5.55;;;;;;;26.07;19.44;99813.78;4975847;28;20033;-47
2023/02/15 11:18:21;;;;;;;10.48;6.55;;;;;;;26.29;19.59;99810.72;4992638;28;20053;-47
2023/02/15 11:21:24;;;;;;;9.55;5.60;;;;;;;26.30;18.91;99804.28;4992428;28;20046;-47
2023/02/15 11:24:01;;;;;;;10.13;6.10;;;;;;;26.53;18.59;99810.84;4976132;28;20038;-46
2023/02/15 11:27:12;;;;;;;23.05;7.68;;;;;;;26.41;19.19;99805.00;5037906;28;20040;-46
2023/02/15 11:30:09;;;;;;;6.20;5.60;;;;;;;26.05;18.61;99803.28;5071343;28;20033;-46
2023/02/15 11:33:18;;;;;;;10.10;5.57;;;;;;;25.76;19.22;99805.00;5071342;28;20078;-46
2023/02/15 11:36:07;;;;;;;9.95;6.53;;;;;;;25.82;19.66;99802.00;5071060;28;20401;-46
2023/02/15 11:38:36;;;;;;;13.55;6.30;;;;;;;26.13;19.02;99801.09;5071454;28;20449;-46
2023/02/15 11:41:10;;;;;;;18.73;7.55;;;;;;;26.13;19.22;99806.50;5071213;28;20410;-46
2023/02/15 11:43:53;;;;;;;18.70;10.82;;;;;;;26.17;19.48;99807.56;5090854;28;20106;-46
2023/02/15 11:46:21;;;;;;;17.65;9.73;;;;;;;25.99;19.27;99807.06;5093719;28;20035;-46
2023/02/15 11:48:49;;;;;;;15.30;11.52;;;;;;;25.24;20.64;99815.00;5093596;28;20512;-46
2023/02/15 11:51:23;;;;;;;11.15;7.50;;;;;;;25.26;19.74;99794.06;5093654;28;20432;-46
2023/02/15 11:53:51;;;;;;;17.48;8.52;;;;;;;25.08;20.19;99798.84;5093430;28;20040;-46
2023/02/15 11:56:23;;;;;;;10.63;7.25;;;;;;;24.42;20.44;99794.19;5075455;28;20110;-46
2023/02/15 11:58:58;;;;;;;18.95;9.07;;;;;;;24.18;20.93;99795.72;5093427;28;20016;-46
2023/02/15 12:01:45;;;;;;;10.48;7.63;;;;;;;24.49;20.76;99789.38;5093438;28;20020;-46
2023/02/15 12:04:32;;;;;;;12.80;9.38;;;;;;;24.69;20.77;99779.78;5092094;28;20496;-46
2023/02/15 12:07:25;;;;;;;11.98;9.15;;;;;;;24.63;20.73;99780.81;5093295;28;20086;-45
2023/02/15 12:10:11;;;;;;;16.75;9.52;;;;;;;24.49;20.97;99773.28;5093257;28;20032;-45
2023/02/15 12:12:38;;;;;;;12.57;9.02;;;;;;;24.42;21.13;99774.59;5093285;28;20066;-46
2023/02/15 12:15:07;;;;;;;11.32;8.38;;;;;;;24.38;21.27;99768.16;5093085;28;20400;-46
2023/02/15 12:17:50;;;;;;;13.60;9.25;;;;;;;24.12;20.96;99768.88;5093092;28;20016;-46
2023/02/15 12:20:17;;;;;;;17.13;9.82;;;;;;;23.72;21.55;99769.47;5091773;28;20032;-46
2023/02/15 12:23:02;;;;;;;22.30;9.52;;;;;;;23.57;21.71;99775.56;5093020;28;20431;-46
2023/02/15 12:25:44;;;;;;;15.55;8.07;;;;;;;23.32;21.91;99765.50;5091618;28;20067;-46
2023/02/15 12:28:35;;;;;;;13.77;7.50;;;;;;;23.37;21.69;99762.06;5091938;28;20024;-46
2023/02/15 12:31:41;;;;;;;11.93;8.13;;;;;;;22.70;22.42;99762.31;5092888;28;20031;-46
2023/02/15 12:34:35;;;;;;;14.15;8.20;;;;;;;22.92;22.76;99764.91;5092580;28;20055;-47
2023/02/15 12:37:19;;;;;;;29.60;8.90;;;;;;;22.91;22.85;99757.94;5091302;28;20028;-46
2023/02/15 12:39:58;;;;;;;60.97;10.40;;;;;;;23.15;22.66;99760.28;5092758;28;20036;-46
2023/02/15 12:42:25;;;;;;;28.25;9.93;;;;;;;23.36;22.53;99761.22;5092829;28;20524;-46
2023/02/15 12:45:21;;;;;;;16.95;7.70;;;;;;;23.49;22.42;99751.94;5090914;28;20139;-46
2023/02/15 12:48:08;;;;;;;;;;;;;;;23.58;22.12;99760.28;5093012;28;20088;-46
2023/02/15 12:50:35;;;;;;;50.90;15.27;;;;;;;22.83;22.91;99741.53;5092491;28;19954;-46
2023/02/15 12:53:18;;;;;;;8.75;5.90;;;;;;;22.50;22.28;99743.41;5092669;28;20031;-46
2023/02/15 12:55:56;;;;;;;7.22;5.13;;;;;;;22.48;23.33;99750.88;5091046;28;20036;-46
2023/02/15 12:58:31;;;;;;;10.48;5.28;;;;;;;22.89;22.24;99751.22;5092259;28;20031;-46